Valdosta, GA

5:35 PM EST on December 02, 2016 (GMT -0500)
Audio Video and Security Inc. | | Change Station

Elev 220 ft 30.81 °N, 83.32 °W | Updated 29 seconds ago

Clear
Clear
58.0 °F
Feels Like 58.0 °F
N
1.1
Wind Variable Wind from NNE

Today
High -- | Low -- °F
--% Chance of Precip.
Yesterday
High -- | Low -- °F
Precip. -- in
Pressure 30.19 in
Visibility 10.0 miles
Clouds Clear
Dew Point 37 °F
Humidity 45%
Rainfall 0.00 in
Snow Depth Not available.
7:14 AM 5:31 PM
Waxing Crescent, 11% visible
METAR KVLD 022153Z 01006KT 10SM CLR 17/M01 A3017 RMK AO2 SLP224 T01671011
Pressure 30.19 in
Visibility 10.0 miles
Clouds Clear
Dew Point 37 °F
Humidity 45%
Rainfall 0.00 in
Snow Depth Not available.
7:14 AM 5:31 PM
Waxing Crescent, 11% visible
METAR KVLD 022153Z 01006KT 10SM CLR 17/M01 A3017 RMK AO2 SLP224 T01671011

10-Day Weather Forecast

Almanac

Astronomy

Dec. 02, 2016 Rise Set
Actual Time
Civil Twilight
Nautical Twilight
Astronomical Twilight
Moon
Length of Visible Light
Length of Day
Tomorrow will be .
, % of the Moon is Illuminated

Today's Extremes

State Highs State Lows

Community

WunderPhotos

Upload Photos

1,955,376 photos uploaded!

WunderBlog® & News

Nearby

Air Quality

  Air Quality AQ Index Pollutant
Not available.

Snow Depth

Station Depth Elevation

Earthquake Activity

City Distance Mag. Time & Date
Minimum magnitude displayed is 2.5.

Coastal Water Temperatures

Place Temperature

Stations

Nearby Weather Stations

Station Location Temp. Windchill Dew Point Humidity Wind Precip. Elev Updated Type
                   

Watches & Warnings

There are currently no watches in effect.